Time;durP1;ratioP1;P1;durP2;ratioP2;P2;SDS_P1;SDS_P2;PMS_P1;PMS_P2;Temp;Humidity;BMP_temperature;BMP_pressure;BME280_temperature;BME280_humidity;BME280_pressure;Samples;Min_cycle;Max_cycle;Signal;HPM_P1;HPM_P2
2024/03/11 00:00:19;;;;;;;4.45;4.13;;;;;;;;;;1045549;28;20032;-73
2024/03/11 00:00:50;;;;;;;9.18;5.97;;;;;;;;;;1045975;28;20400;-73
2024/03/11 00:01:23;;;;;;;3.55;2.30;;;;;;;;;;1045982;28;20492;-74
2024/03/11 00:01:54;;;;;;;6.28;4.00;;;;;;;;;;1046531;28;20454;-73
2024/03/11 00:02:24;;;;;;;8.85;3.83;;;;;;;;;;1044931;28;20036;-73
2024/03/11 00:02:55;;;;;;;3.75;3.45;;;;;;;;;;1043655;28;20031;-74
2024/03/11 00:03:27;;;;;;;9.75;4.85;;;;;;;;;;1043399;28;20052;-74
2024/03/11 00:03:58;;;;;;;10.52;3.42;;;;;;;;;;1043923;28;20539;-73
2024/03/11 00:04:28;;;;;;;7.78;3.30;;;;;;;;;;1045805;28;20027;-74
2024/03/11 00:04:59;;;;;;;11.15;3.80;;;;;;;;;;1045724;28;20024;-74
2024/03/11 00:05:30;;;;;;;1.88;1.77;;;;;;;;;;1045784;28;20032;-74
2024/03/11 00:06:02;;;;;;;1.80;1.65;;;;;;;;;;1046106;28;20025;-74
2024/03/11 00:06:35;;;;;;;5.97;4.35;;;;;;;;;;1046550;28;20369;-74
2024/03/11 00:07:08;;;;;;;6.72;2.72;;;;;;;;;;1045771;28;20028;-74
2024/03/11 00:07:42;;;;;;;3.08;2.85;;;;;;;;;;1045872;28;20025;-75
2024/03/11 00:08:16;;;;;;;7.50;4.30;;;;;;;;;;1044930;28;20051;-75
2024/03/11 00:08:47;;;;;;;2.22;1.90;;;;;;;;;;1045607;28;20028;-74
2024/03/11 00:09:28;;;;;;;11.40;5.90;;;;;;;;;;1045713;28;20021;-75
2024/03/11 00:09:58;;;;;;;6.65;5.13;;;;;;;;;;1045541;28;20545;-75
2024/03/11 00:10:31;;;;;;;3.22;3.00;;;;;;;;;;1045638;28;20116;-74
2024/03/11 00:11:01;;;;;;;5.93;4.45;;;;;;;;;;1045726;28;20025;-75
2024/03/11 00:11:32;;;;;;;7.63;3.38;;;;;;;;;;1046302;28;20460;-74
2024/03/11 00:12:03;;;;;;;6.38;5.65;;;;;;;;;;1046141;28;20365;-75
2024/03/11 00:12:38;;;;;;;7.25;2.50;;;;;;;;;;1046289;28;20027;-74
2024/03/11 00:13:10;;;;;;;7.70;4.85;;;;;;;;;;1045298;28;20017;-74
2024/03/11 00:13:41;;;;;;;3.08;2.78;;;;;;;;;;1045716;28;20464;-75
2024/03/11 00:14:11;;;;;;;9.20;5.47;;;;;;;;;;1045869;28;20028;-75
2024/03/11 00:14:47;;;;;;;12.48;3.85;;;;;;;;;;1045977;28;20025;-74
2024/03/11 00:15:20;;;;;;;10.10;2.58;;;;;;;;;;1045602;28;20025;-74
2024/03/11 00:15:51;;;;;;;4.57;3.67;;;;;;;;;;1046077;28;20516;-74
2024/03/11 00:16:21;;;;;;;8.88;5.10;;;;;;;;;;1045177;28;20024;-74
2024/03/11 00:16:52;;;;;;;6.35;4.45;;;;;;;;;;1045611;28;20049;-74
2024/03/11 00:17:23;;;;;;;8.90;4.32;;;;;;;;;;1045488;28;20031;-74
2024/03/11 00:17:55;;;;;;;5.75;3.72;;;;;;;;;;1045749;28;20052;-74
2024/03/11 00:18:26;;;;;;;28.02;4.07;;;;;;;;;;1045875;28;20016;-74
2024/03/11 00:18:56;;;;;;;10.63;4.57;;;;;;;;;;1045935;28;20056;-74
2024/03/11 00:19:27;;;;;;;4.57;4.00;;;;;;;;;;1045823;28;20021;-74
2024/03/11 00:19:57;;;;;;;15.30;4.70;;;;;;;;;;1046334;28;20198;-74
2024/03/11 00:20:28;;;;;;;9.18;3.53;;;;;;;;;;1046160;28;20024;-75
2024/03/11 00:20:58;;;;;;;15.38;4.63;;;;;;;;;;1045701;28;20017;-74
2024/03/11 00:21:29;;;;;;;3.58;2.45;;;;;;;;;;1045582;28;20021;-74
2024/03/11 00:22:02;;;;;;;6.35;2.78;;;;;;;;;;1046155;28;20040;-74
2024/03/11 00:22:37;;;;;;;3.22;2.90;;;;;;;;;;1044806;28;20028;-74
2024/03/11 00:23:07;;;;;;;12.43;6.05;;;;;;;;;;1044870;28;20111;-75
2024/03/11 00:23:39;;;;;;;3.90;2.97;;;;;;;;;;1045759;28;20031;-75
2024/03/11 00:24:09;;;;;;;5.47;3.22;;;;;;;;;;1045810;28;20025;-75
2024/03/11 00:24:40;;;;;;;7.43;3.08;;;;;;;;;;1045888;28;20103;-74
2024/03/11 00:25:10;;;;;;;5.60;3.83;;;;;;;;;;1046252;28;20123;-74
2024/03/11 00:25:41;;;;;;;9.77;4.10;;;;;;;;;;1045855;28;20025;-74
2024/03/11 00:26:11;;;;;;;6.60;3.65;;;;;;;;;;1045921;28;20023;-74
2024/03/11 00:26:41;;;;;;;4.70;3.67;;;;;;;;;;1045444;28;20020;-75
2024/03/11 00:27:12;;;;;;;11.73;4.20;;;;;;;;;;1045311;28;20400;-74
2024/03/11 00:27:42;;;;;;;5.93;3.88;;;;;;;;;;1045912;28;20488;-74
2024/03/11 00:28:13;;;;;;;5.60;4.10;;;;;;;;;;1045103;28;20025;-74
2024/03/11 00:28:44;;;;;;;7.60;2.08;;;;;;;;;;1046255;28;20573;-75
2024/03/11 00:29:15;;;;;;;3.70;2.50;;;;;;;;;;1045980;28;20020;-74
2024/03/11 00:29:46;;;;;;;9.98;5.90;;;;;;;;;;1045198;28;20033;-74
2024/03/11 00:30:17;;;;;;;16.48;4.53;;;;;;;;;;1046130;28;20021;-74
2024/03/11 00:30:48;;;;;;;5.38;4.30;;;;;;;;;;1046422;28;20039;-74
2024/03/11 00:31:18;;;;;;;5.40;3.20;;;;;;;;;;1044565;28;20502;-75
2024/03/11 00:31:51;;;;;;;14.52;2.35;;;;;;;;;;1045901;28;20602;-75
2024/03/11 00:32:24;;;;;;;7.18;2.92;;;;;;;;;;1045817;28;20025;-75
2024/03/11 00:32:54;;;;;;;12.95;4.13;;;;;;;;;;1045673;28;20449;-75
2024/03/11 00:33:26;;;;;;;2.92;2.72;;;;;;;;;;1045763;28;20051;-74
2024/03/11 00:33:58;;;;;;;5.00;3.80;;;;;;;;;;1044879;28;20525;-75
2024/03/11 00:34:29;;;;;;;13.77;5.97;;;;;;;;;;1045585;28;20480;-75
2024/03/11 00:35:01;;;;;;;12.13;4.82;;;;;;;;;;1045354;28;20050;-75
2024/03/11 00:35:32;;;;;;;3.47;2.15;;;;;;;;;;1045407;28;20017;-74
2024/03/11 00:36:03;;;;;;;3.65;3.17;;;;;;;;;;1045852;28;20021;-74
2024/03/11 00:36:34;;;;;;;4.55;3.42;;;;;;;;;;1045658;28;20057;-74
2024/03/11 00:37:05;;;;;;;11.27;5.72;;;;;;;;;;1045013;28;20031;-74
2024/03/11 00:37:35;;;;;;;6.18;4.22;;;;;;;;;;1046181;28;20028;-74
2024/03/11 00:38:07;;;;;;;2.88;2.65;;;;;;;;;;1045696;28;20024;-75
2024/03/11 00:38:39;;;;;;;0.68;0.57;;;;;;;;;;1045742;28;20111;-75
2024/03/11 00:39:10;;;;;;;7.68;4.93;;;;;;;;;;1045818;28;20141;-75
2024/03/11 00:39:41;;;;;;;5.57;3.50;;;;;;;;;;1045932;28;20016;-75
2024/03/11 00:40:12;;;;;;;2.35;2.15;;;;;;;;;;1046165;28;20025;-74
2024/03/11 00:40:44;;;;;;;4.20;2.83;;;;;;;;;;1046021;28;20471;-75
2024/03/11 00:41:14;;;;;;;1.85;1.70;;;;;;;;;;1045214;28;20020;-74
2024/03/11 00:41:45;;;;;;;3.63;2.13;;;;;;;;;;1045867;28;20111;-74
2024/03/11 00:42:18;;;;;;;3.08;2.88;;;;;;;;;;1045674;28;20048;-74
2024/03/11 00:42:49;;;;;;;2.25;1.13;;;;;;;;;;1045846;28;20021;-74
2024/03/11 00:43:21;;;;;;;5.32;2.72;;;;;;;;;;1044584;28;20021;-75
2024/03/11 00:43:51;;;;;;;3.47;2.90;;;;;;;;;;1042405;28;20024;-74
2024/03/11 00:44:22;;;;;;;8.88;4.60;;;;;;;;;;1045742;28;20027;-74
2024/03/11 00:44:52;;;;;;;4.85;2.90;;;;;;;;;;1045719;28;20083;-74
2024/03/11 00:45:23;;;;;;;14.05;5.97;;;;;;;;;;1045170;28;20314;-74
2024/03/11 00:45:53;;;;;;;8.00;6.03;;;;;;;;;;1045944;28;20028;-74
2024/03/11 00:46:24;;;;;;;6.47;4.97;;;;;;;;;;1044913;28;20115;-74
2024/03/11 00:46:54;;;;;;;6.65;3.15;;;;;;;;;;1046228;28;20032;-74
2024/03/11 00:47:25;;;;;;;7.93;2.53;;;;;;;;;;1045624;28;20051;-75
2024/03/11 00:47:56;;;;;;;3.25;2.92;;;;;;;;;;1044929;28;20087;-74
2024/03/11 00:48:27;;;;;;;5.53;4.18;;;;;;;;;;1045809;28;20492;-74
2024/03/11 00:49:00;;;;;;;7.47;5.85;;;;;;;;;;1045931;28;20062;-75
2024/03/11 00:49:31;;;;;;;10.48;4.93;;;;;;;;;;1046233;28;20008;-75
2024/03/11 00:50:06;;;;;;;5.32;1.63;;;;;;;;;;1045346;28;20027;-75
2024/03/11 00:50:37;;;;;;;9.07;3.00;;;;;;;;;;1045088;28;20075;-75
2024/03/11 00:51:07;;;;;;;4.43;3.63;;;;;;;;;;1045769;28;20024;-74
2024/03/11 00:51:38;;;;;;;3.97;3.63;;;;;;;;;;1045384;28;20033;-74
2024/03/11 00:52:09;;;;;;;2.97;1.85;;;;;;;;;;1045607;28;20017;-74
2024/03/11 00:52:41;;;;;;;4.15;3.42;;;;;;;;;;1045486;28;20028;-74
2024/03/11 00:53:11;;;;;;;4.88;4.38;;;;;;;;;;1045728;28;20029;-74
2024/03/11 00:53:42;;;;;;;5.35;4.32;;;;;;;;;;1045926;28;20025;-74
2024/03/11 00:54:12;;;;;;;29.00;5.03;;;;;;;;;;1045647;28;20021;-74
2024/03/11 00:54:44;;;;;;;23.50;5.57;;;;;;;;;;1045771;28;20020;-74
2024/03/11 00:55:15;;;;;;;4.28;3.45;;;;;;;;;;1044559;28;20028;-74
2024/03/11 00:55:46;;;;;;;3.58;3.28;;;;;;;;;;1045897;28;20016;-75
2024/03/11 00:56:17;;;;;;;8.52;5.53;;;;;;;;;;1044882;28;20016;-74
2024/03/11 00:56:47;;;;;;;3.22;1.98;;;;;;;;;;1045390;28;20044;-74
2024/03/11 00:57:18;;;;;;;5.63;4.47;;;;;;;;;;1045233;28;20484;-75
2024/03/11 00:57:48;;;;;;;3.35;3.13;;;;;;;;;;1045771;28;20048;-74
2024/03/11 00:58:19;;;;;;;9.23;4.15;;;;;;;;;;1045711;28;20060;-74
2024/03/11 00:58:49;;;;;;;5.55;2.97;;;;;;;;;;1045266;28;20101;-74
2024/03/11 00:59:20;;;;;;;3.50;2.22;;;;;;;;;;1045604;28;20022;-75
2024/03/11 00:59:51;;;;;;;11.65;4.57;;;;;;;;;;1045516;28;20031;-74
2024/03/11 01:00:22;;;;;;;16.40;5.85;;;;;;;;;;1045011;28;20604;-74
2024/03/11 01:00:52;;;;;;;23.75;4.00;;;;;;;;;;1046891;28;20029;-74
2024/03/11 01:01:25;;;;;;;9.48;5.15;;;;;;;;;;1045963;28;20032;-74
2024/03/11 01:01:56;;;;;;;5.32;3.42;;;;;;;;;;1046280;28;20461;-74
2024/03/11 01:02:26;;;;;;;3.50;3.20;;;;;;;;;;1046117;28;20054;-74
2024/03/11 01:02:57;;;;;;;4.32;3.10;;;;;;;;;;1046030;28;20063;-75
2024/03/11 01:03:31;;;;;;;5.10;4.43;;;;;;;;;;1045581;28;20032;-74
2024/03/11 01:04:03;;;;;;;6.50;2.78;;;;;;;;;;1045343;28;20016;-75
2024/03/11 01:04:35;;;;;;;1.67;1.55;;;;;;;;;;1045525;28;20131;-74
2024/03/11 01:05:06;;;;;;;3.65;3.03;;;;;;;;;;1045282;28;20057;-75
2024/03/11 01:05:38;;;;;;;17.95;3.08;;;;;;;;;;1045522;28;20420;-75
2024/03/11 01:06:09;;;;;;;5.53;1.65;;;;;;;;;;1045018;28;20111;-74
2024/03/11 01:06:40;;;;;;;3.60;2.95;;;;;;;;;;1046052;28;20108;-75
2024/03/11 01:07:10;;;;;;;16.33;5.00;;;;;;;;;;1046059;28;20415;-75
2024/03/11 01:07:41;;;;;;;2.80;2.38;;;;;;;;;;1046197;28;20029;-75
2024/03/11 01:08:11;;;;;;;3.60;2.38;;;;;;;;;;1045617;28;20054;-75
2024/03/11 01:08:41;;;;;;;7.50;3.22;;;;;;;;;;1045399;28;20108;-75
2024/03/11 01:09:12;;;;;;;4.20;3.80;;;;;;;;;;1045808;28;20020;-75
2024/03/11 01:09:42;;;;;;;2.97;2.78;;;;;;;;;;1045740;28;20099;-74
2024/03/11 01:10:14;;;;;;;3.00;2.67;;;;;;;;;;1045544;28;20025;-74
2024/03/11 01:10:44;;;;;;;3.35;2.97;;;;;;;;;;1045821;28;20028;-74
2024/03/11 01:11:14;;;;;;;10.20;6.72;;;;;;;;;;1045643;28;20021;-74
2024/03/11 01:11:45;;;;;;;2.05;1.95;;;;;;;;;;1045746;28;20086;-74
2024/03/11 01:12:15;;;;;;;2.22;2.05;;;;;;;;;;1043909;28;20027;-74
2024/03/11 01:12:46;;;;;;;6.78;5.07;;;;;;;;;;1045271;28;20017;-75
2024/03/11 01:13:16;;;;;;;3.25;1.95;;;;;;;;;;1045828;28;20016;-74
2024/03/11 01:13:47;;;;;;;1.20;1.15;;;;;;;;;;1044634;28;20028;-75
2024/03/11 01:14:18;;;;;;;4.90;3.97;;;;;;;;;;1045939;28;20052;-75
2024/03/11 01:14:48;;;;;;;4.22;2.17;;;;;;;;;;1046335;28;20023;-75
2024/03/11 01:15:20;;;;;;;3.88;1.92;;;;;;;;;;1046048;28;20024;-74
2024/03/11 01:15:51;;;;;;;20.30;5.40;;;;;;;;;;1044965;28;20021;-74
2024/03/11 01:16:21;;;;;;;8.43;4.50;;;;;;;;;;1045725;28;20025;-74
2024/03/11 01:16:52;;;;;;;3.00;2.53;;;;;;;;;;1045249;28;20028;-74
2024/03/11 01:17:22;;;;;;;13.27;4.45;;;;;;;;;;1042524;28;20117;-75
2024/03/11 01:17:55;;;;;;;1.45;1.35;;;;;;;;;;1045684;28;20025;-74
2024/03/11 01:18:26;;;;;;;1.98;1.83;;;;;;;;;;1043809;28;20059;-75
2024/03/11 01:18:56;;;;;;;6.35;3.05;;;;;;;;;;1046474;28;20034;-74
2024/03/11 01:19:27;;;;;;;8.48;4.43;;;;;;;;;;1046780;28;20392;-74
2024/03/11 01:19:58;;;;;;;1.60;1.50;;;;;;;;;;1041948;28;20021;-75
2024/03/11 01:20:29;;;;;;;6.40;2.88;;;;;;;;;;1045858;28;20713;-74
2024/03/11 01:21:00;;;;;;;12.68;4.05;;;;;;;;;;1044932;28;20540;-74
2024/03/11 01:21:31;;;;;;;8.82;2.22;;;;;;;;;;1044242;28;20030;-74
2024/03/11 01:22:01;;;;;;;13.73;5.45;;;;;;;;;;1044415;28;20032;-75
2024/03/11 01:22:32;;;;;;;13.73;5.25;;;;;;;;;;1045501;28;20024;-74
2024/03/11 01:23:05;;;;;;;12.70;3.15;;;;;;;;;;1045365;28;20021;-74
2024/03/11 01:23:36;;;;;;;4.32;2.80;;;;;;;;;;1044286;28;20158;-74
2024/03/11 01:24:10;;;;;;;3.83;3.42;;;;;;;;;;1042952;28;20098;-75
2024/03/11 01:24:40;;;;;;;7.68;4.53;;;;;;;;;;1044291;28;20040;-74
2024/03/11 01:25:11;;;;;;;7.78;5.43;;;;;;;;;;1045057;28;20515;-75
2024/03/11 01:25:41;;;;;;;10.90;3.33;;;;;;;;;;1045034;28;20492;-75
2024/03/11 01:26:12;;;;;;;10.52;4.38;;;;;;;;;;1046158;28;20098;-75
2024/03/11 01:26:47;;;;;;;5.82;3.45;;;;;;;;;;1045823;28;20116;-74
2024/03/11 01:27:19;;;;;;;8.82;6.47;;;;;;;;;;1042725;28;20094;-75
2024/03/11 01:27:50;;;;;;;3.85;2.47;;;;;;;;;;1045415;28;20395;-75
2024/03/11 01:28:21;;;;;;;6.43;3.28;;;;;;;;;;1045270;28;20031;-74
2024/03/11 01:28:51;;;;;;;4.28;3.78;;;;;;;;;;1043572;28;20037;-74
2024/03/11 01:29:24;;;;;;;12.18;3.97;;;;;;;;;;1043507;28;20378;-75
2024/03/11 01:29:54;;;;;;;10.43;3.72;;;;;;;;;;1046961;28;20039;-74
2024/03/11 01:30:25;;;;;;;9.20;4.90;;;;;;;;;;1044067;28;20408;-74
2024/03/11 01:30:55;;;;;;;5.82;4.07;;;;;;;;;;1045509;28;20024;-75
2024/03/11 01:31:28;;;;;;;20.05;6.75;;;;;;;;;;1047323;28;20062;-75
2024/03/11 01:31:58;;;;;;;16.67;4.28;;;;;;;;;;1044254;28;20031;-74
2024/03/11 01:32:30;;;;;;;20.98;5.80;;;;;;;;;;1045901;28;20468;-75
2024/03/11 01:33:03;;;;;;;14.50;4.78;;;;;;;;;;1045821;28;20042;-74
2024/03/11 01:33:33;;;;;;;1.55;1.45;;;;;;;;;;1043934;28;20021;-75
2024/03/11 01:34:03;;;;;;;9.05;4.30;;;;;;;;;;1043493;28;20451;-75
2024/03/11 01:34:34;;;;;;;6.05;3.85;;;;;;;;;;1045996;28;20459;-74
2024/03/11 01:35:06;;;;;;;5.65;3.25;;;;;;;;;;1045599;28;20500;-74
2024/03/11 01:35:37;;;;;;;9.00;3.83;;;;;;;;;;1047555;28;20514;-76
2024/03/11 01:36:08;;;;;;;4.32;3.60;;;;;;;;;;1043977;28;20043;-75
2024/03/11 01:36:39;;;;;;;6.50;4.93;;;;;;;;;;1043266;28;20027;-74
2024/03/11 01:37:10;;;;;;;3.95;2.90;;;;;;;;;;1043684;28;20294;-74
2024/03/11 01:37:43;;;;;;;5.05;4.65;;;;;;;;;;1045360;28;20027;-75
2024/03/11 01:38:14;;;;;;;9.57;2.80;;;;;;;;;;1046748;28;20025;-75
2024/03/11 01:38:46;;;;;;;1.63;1.52;;;;;;;;;;1039859;28;20519;-75
2024/03/11 01:39:25;;;;;;;3.80;3.45;;;;;;;;;;1041594;28;20021;-75
2024/03/11 01:39:55;;;;;;;1.95;1.45;;;;;;;;;;1041796;28;20032;-74
2024/03/11 01:40:27;;;;;;;2.38;1.27;;;;;;;;;;1039786;28;20481;-74
2024/03/11 01:40:58;;;;;;;6.82;4.97;;;;;;;;;;1039477;28;20025;-74
2024/03/11 01:41:28;;;;;;;4.53;2.65;;;;;;;;;;1038034;28;20021;-75
2024/03/11 01:41:59;;;;;;;2.05;1.90;;;;;;;;;;1040991;28;20873;-75
2024/03/11 01:42:29;;;;;;;4.40;2.67;;;;;;;;;;1045199;28;20413;-74
2024/03/11 01:42:59;;;;;;;9.40;2.45;;;;;;;;;;1046869;28;20035;-75
2024/03/11 01:43:30;;;;;;;6.20;4.25;;;;;;;;;;1051331;28;20432;-74
2024/03/11 01:44:00;;;;;;;5.00;3.83;;;;;;;;;;1050452;28;20042;-74
2024/03/11 01:44:31;;;;;;;5.35;2.83;;;;;;;;;;1048746;28;20095;-74
2024/03/11 01:45:02;;;;;;;3.20;3.00;;;;;;;;;;1051496;28;20070;-75
2024/03/11 01:45:33;;;;;;;4.18;2.92;;;;;;;;;;1051702;28;20514;-75
2024/03/11 01:46:04;;;;;;;4.28;2.08;;;;;;;;;;1051910;28;20114;-75
2024/03/11 01:46:34;;;;;;;2.33;2.05;;;;;;;;;;1046995;28;20032;-75
2024/03/11 01:47:06;;;;;;;2.42;1.70;;;;;;;;;;1047066;28;20036;-75
2024/03/11 01:47:37;;;;;;;0.50;0.50;;;;;;;;;;1047485;28;20127;-74
2024/03/11 01:48:09;;;;;;;3.90;2.35;;;;;;;;;;1045975;28;20021;-74
2024/03/11 01:48:40;;;;;;;5.88;4.00;;;;;;;;;;1046856;28;20069;-75
2024/03/11 01:49:11;;;;;;;2.08;1.63;;;;;;;;;;1043473;28;20017;-74
2024/03/11 01:49:43;;;;;;;1.65;1.55;;;;;;;;;;1044741;28;20091;-74
2024/03/11 01:50:16;;;;;;;4.35;3.05;;;;;;;;;;1044417;28;20028;-76
2024/03/11 01:50:48;;;;;;;1.67;1.55;;;;;;;;;;1042032;28;20039;-75
2024/03/11 01:51:18;;;;;;;6.10;2.45;;;;;;;;;;1042426;28;20889;-73
2024/03/11 01:51:49;;;;;;;4.50;4.10;;;;;;;;;;1042468;28;20036;-73
2024/03/11 01:52:22;;;;;;;4.35;3.95;;;;;;;;;;1042762;28;20123;-74
2024/03/11 01:52:58;;;;;;;3.55;3.20;;;;;;;;;;1045231;28;20028;-75
2024/03/11 01:53:29;;;;;;;3.92;3.17;;;;;;;;;;1046422;28;20093;-73
2024/03/11 01:54:01;;;;;;;7.82;4.63;;;;;;;;;;1049906;28;20476;-74
2024/03/11 01:54:31;;;;;;;5.68;1.63;;;;;;;;;;1046844;28;20530;-73
2024/03/11 01:55:03;;;;;;;3.20;2.95;;;;;;;;;;1046355;28;20028;-74
2024/03/11 01:55:34;;;;;;;2.40;1.95;;;;;;;;;;1049083;28;20015;-74
2024/03/11 01:56:05;;;;;;;2.03;1.90;;;;;;;;;;1045811;28;20036;-74
2024/03/11 01:56:37;;;;;;;3.15;2.80;;;;;;;;;;1046021;28;20452;-74
2024/03/11 01:57:10;;;;;;;11.60;4.63;;;;;;;;;;1045484;28;20032;-74
2024/03/11 01:57:41;;;;;;;2.08;1.88;;;;;;;;;;1046108;28;20036;-73
2024/03/11 01:58:13;;;;;;;4.07;2.25;;;;;;;;;;1046429;28;20046;-74
2024/03/11 01:58:46;;;;;;;2.03;1.90;;;;;;;;;;1044742;28;20886;-73
2024/03/11 01:59:17;;;;;;;5.10;2.13;;;;;;;;;;1045108;28;20694;-74
2024/03/11 01:59:47;;;;;;;2.33;2.15;;;;;;;;;;1044925;28;20071;-74
2024/03/11 02:00:21;;;;;;;2.38;2.20;;;;;;;;;;1045371;28;20491;-74
2024/03/11 02:00:52;;;;;;;5.80;2.35;;;;;;;;;;1045228;28;20115;-75
2024/03/11 02:01:23;;;;;;;5.63;4.10;;;;;;;;;;1046318;28;20476;-74
2024/03/11 02:01:54;;;;;;;2.22;2.05;;;;;;;;;;1046766;28;20122;-74
2024/03/11 02:02:25;;;;;;;10.80;3.72;;;;;;;;;;1044106;28;20060;-75
2024/03/11 02:02:55;;;;;;;4.47;3.67;;;;;;;;;;1044132;28;20492;-74
2024/03/11 02:03:26;;;;;;;5.22;2.63;;;;;;;;;;1045572;28;20040;-74
2024/03/11 02:03:59;;;;;;;2.10;1.80;;;;;;;;;;1045120;28;20029;-74
2024/03/11 02:04:33;;;;;;;4.18;2.05;;;;;;;;;;1043277;28;20606;-75
2024/03/11 02:05:05;;;;;;;7.78;3.42;;;;;;;;;;1044180;28;20468;-75
2024/03/11 02:05:40;;;;;;;6.50;5.00;;;;;;;;;;1050392;28;20150;-73
2024/03/11 02:06:11;;;;;;;3.85;2.83;;;;;;;;;;1050077;28;20093;-76
2024/03/11 02:06:42;;;;;;;1.10;1.00;;;;;;;;;;1046351;28;20380;-75
2024/03/11 02:07:14;;;;;;;4.38;3.67;;;;;;;;;;1045637;28;20139;-74
2024/03/11 02:07:46;;;;;;;3.05;2.75;;;;;;;;;;1046355;28;20467;-75
2024/03/11 02:08:16;;;;;;;10.30;2.55;;;;;;;;;;1046356;28;20131;-74
2024/03/11 02:08:46;;;;;;;10.85;4.03;;;;;;;;;;1044834;28;20017;-75
2024/03/11 02:09:19;;;;;;;1.63;1.52;;;;;;;;;;1044633;28;20242;-74
2024/03/11 02:09:50;;;;;;;4.82;3.97;;;;;;;;;;1045868;28;20024;-74
2024/03/11 02:10:23;;;;;;;2.65;1.58;;;;;;;;;;1047029;28;20463;-74
2024/03/11 02:10:53;;;;;;;3.83;1.98;;;;;;;;;;1044045;28;20024;-75
2024/03/11 02:11:24;;;;;;;3.20;3.00;;;;;;;;;;1046666;28;20025;-74
2024/03/11 02:11:54;;;;;;;7.55;4.93;;;;;;;;;;1043154;28;20481;-74
2024/03/11 02:12:26;;;;;;;8.27;4.80;;;;;;;;;;1038770;28;20449;-75
2024/03/11 02:12:58;;;;;;;2.75;1.63;;;;;;;;;;1044047;28;20506;-74
2024/03/11 02:13:30;;;;;;;4.43;1.33;;;;;;;;;;1043306;28;20076;-74
2024/03/11 02:14:01;;;;;;;2.20;1.85;;;;;;;;;;1043560;28;20039;-75
2024/03/11 02:14:31;;;;;;;3.10;2.63;;;;;;;;;;1043826;28;20102;-75
2024/03/11 02:15:02;;;;;;;5.82;5.25;;;;;;;;;;1043730;28;20388;-74
2024/03/11 02:15:33;;;;;;;4.22;3.58;;;;;;;;;;1045661;28;20024;-75
2024/03/11 02:16:03;;;;;;;15.95;6.90;;;;;;;;;;1044724;28;20039;-74
2024/03/11 02:16:34;;;;;;;10.65;2.95;;;;;;;;;;1045670;28;20029;-74
2024/03/11 02:17:05;;;;;;;6.72;2.45;;;;;;;;;;1044663;28;20044;-74
2024/03/11 02:17:35;;;;;;;2.58;2.38;;;;;;;;;;1044993;28;20031;-74
2024/03/11 02:18:06;;;;;;;3.40;2.75;;;;;;;;;;1045997;28;20009;-75
2024/03/11 02:18:36;;;;;;;3.90;3.53;;;;;;;;;;1044339;28;20393;-75
2024/03/11 02:19:07;;;;;;;5.95;4.10;;;;;;;;;;1045056;28;20094;-75
2024/03/11 02:19:39;;;;;;;2.70;2.50;;;;;;;;;;1042474;28;20098;-76
2024/03/11 02:20:16;;;;;;;3.70;3.40;;;;;;;;;;1045626;28;20371;-75
2024/03/11 02:20:47;;;;;;;1.08;1.00;;;;;;;;;;1046434;28;20033;-74
2024/03/11 02:21:18;;;;;;;4.30;3.90;;;;;;;;;;1044909;28;20031;-75
2024/03/11 02:21:51;;;;;;;5.75;4.18;;;;;;;;;;1046309;28;20025;-75
2024/03/11 02:22:22;;;;;;;1.40;1.30;;;;;;;;;;1041962;28;20036;-75
2024/03/11 02:22:53;;;;;;;6.38;4.15;;;;;;;;;;1035873;28;20497;-76
2024/03/11 02:23:24;;;;;;;0.77;0.77;;;;;;;;;;1038698;28;20535;-75
2024/03/11 02:23:55;;;;;;;3.55;3.17;;;;;;;;;;1039011;28;20048;-73
2024/03/11 02:24:26;;;;;;;3.53;3.30;;;;;;;;;;1044116;28;20126;-74
2024/03/11 02:24:59;;;;;;;6.95;4.55;;;;;;;;;;1042648;28;20036;-73
2024/03/11 02:25:30;;;;;;;1.20;1.20;;;;;;;;;;1042613;28;20080;-73
2024/03/11 02:26:00;;;;;;;1.50;1.40;;;;;;;;;;1046194;28;20602;-74
2024/03/11 02:26:32;;;;;;;2.97;1.77;;;;;;;;;;1047171;28;20024;-74
2024/03/11 02:27:02;;;;;;;1.92;1.83;;;;;;;;;;1044037;28;20091;-74
2024/03/11 02:27:33;;;;;;;3.28;2.10;;;;;;;;;;1043079;28;20016;-74
2024/03/11 02:28:03;;;;;;;2.60;2.33;;;;;;;;;;1045161;28;20083;-75
2024/03/11 02:28:34;;;;;;;4.82;2.55;;;;;;;;;;1043623;28;20036;-75
2024/03/11 02:29:04;;;;;;;4.43;4.00;;;;;;;;;;1043892;28;20470;-74
2024/03/11 02:29:35;;;;;;;3.25;2.15;;;;;;;;;;1043470;28;20029;-74
2024/03/11 02:30:07;;;;;;;1.35;1.25;;;;;;;;;;1044724;28;20029;-74
2024/03/11 02:30:38;;;;;;;1.70;1.60;;;;;;;;;;1044421;28;20135;-75
2024/03/11 02:31:09;;;;;;;7.45;2.60;;;;;;;;;;1042860;28;20136;-75
2024/03/11 02:31:39;;;;;;;1.67;1.58;;;;;;;;;;1045067;28;20033;-75
2024/03/11 02:32:10;;;;;;;2.22;1.65;;;;;;;;;;1044929;28;20028;-74
2024/03/11 02:32:40;;;;;;;2.22;2.00;;;;;;;;;;1044209;28;20028;-75
2024/03/11 02:33:10;;;;;;;6.28;2.53;;;;;;;;;;1045780;28;20032;-75
2024/03/11 02:33:41;;;;;;;4.20;3.88;;;;;;;;;;1044880;28;20063;-75
2024/03/11 02:34:11;;;;;;;3.67;2.95;;;;;;;;;;1044327;28;20048;-74
2024/03/11 02:34:42;;;;;;;7.53;2.33;;;;;;;;;;1044091;28;20064;-74
2024/03/11 02:35:12;;;;;;;5.88;3.65;;;;;;;;;;1043850;28;20035;-75
2024/03/11 02:35:43;;;;;;;2.15;1.42;;;;;;;;;;1045040;28;20130;-76
2024/03/11 02:36:13;;;;;;;2.97;2.60;;;;;;;;;;1042421;28;20716;-76
2024/03/11 02:36:46;;;;;;;2.97;2.50;;;;;;;;;;1041011;28;20174;-73
2024/03/11 02:37:16;;;;;;;2.92;1.85;;;;;;;;;;1041281;28;20036;-74
2024/03/11 02:37:48;;;;;;;3.35;3.05;;;;;;;;;;1043994;28;20571;-75
2024/03/11 02:38:19;;;;;;;1.95;1.85;;;;;;;;;;1042520;28;20446;-74
2024/03/11 02:38:49;;;;;;;5.82;2.85;;;;;;;;;;1042636;28;20119;-75
2024/03/11 02:39:20;;;;;;;2.25;1.90;;;;;;;;;;1043431;28;20132;-75
2024/03/11 02:39:51;;;;;;;16.05;1.77;;;;;;;;;;1040069;28;20029;-74
2024/03/11 02:40:26;;;;;;;3.83;3.53;;;;;;;;;;1038384;28;20570;-75
2024/03/11 02:40:57;;;;;;;9.20;3.05;;;;;;;;;;1041298;28;20201;-75
2024/03/11 02:41:29;;;;;;;3.95;3.55;;;;;;;;;;1040544;28;20032;-75
2024/03/11 02:41:59;;;;;;;1.48;1.38;;;;;;;;;;1044208;28;20028;-75
2024/03/11 02:42:34;;;;;;;11.35;4.95;;;;;;;;;;1038935;28;20088;-75
2024/03/11 02:43:05;;;;;;;3.40;2.35;;;;;;;;;;1043127;28;20037;-75
2024/03/11 02:43:36;;;;;;;10.15;1.05;;;;;;;;;;1040109;28;20417;-75
2024/03/11 02:44:08;;;;;;;0.73;0.73;;;;;;;;;;1040389;28;20139;-74
2024/03/11 02:44:38;;;;;;;1.67;0.82;;;;;;;;;;1041824;28;20692;-74
2024/03/11 02:45:14;;;;;;;5.55;4.78;;;;;;;;;;1041785;28;20025;-74
2024/03/11 02:45:45;;;;;;;1.77;1.33;;;;;;;;;;1042168;28;20058;-74
2024/03/11 02:46:16;;;;;;;5.35;2.42;;;;;;;;;;1041076;28;20036;-74
2024/03/11 02:46:46;;;;;;;5.38;1.88;;;;;;;;;;1046412;28;20059;-75
2024/03/11 02:47:17;;;;;;;1.88;1.75;;;;;;;;;;1046036;28;20133;-75
2024/03/11 02:47:49;;;;;;;4.25;3.25;;;;;;;;;;1044582;28;20037;-74
2024/03/11 02:48:19;;;;;;;2.33;2.13;;;;;;;;;;1044605;28;20024;-75
2024/03/11 02:48:50;;;;;;;15.25;1.30;;;;;;;;;;1043420;28;20033;-76
2024/03/11 02:49:20;;;;;;;6.97;2.92;;;;;;;;;;1043420;28;20105;-74
2024/03/11 02:49:51;;;;;;;2.15;1.83;;;;;;;;;;1043952;28;20036;-75
2024/03/11 02:50:22;;;;;;;6.47;3.42;;;;;;;;;;1045400;28;20075;-75
2024/03/11 02:50:52;;;;;;;3.40;2.67;;;;;;;;;;1044426;28;20587;-75
2024/03/11 02:51:23;;;;;;;2.75;2.42;;;;;;;;;;1044010;28;20028;-76
2024/03/11 02:51:54;;;;;;;5.80;4.28;;;;;;;;;;1043987;28;20156;-75
2024/03/11 02:52:24;;;;;;;1.55;1.27;;;;;;;;;;1042999;28;20137;-76
2024/03/11 02:52:55;;;;;;;5.43;3.10;;;;;;;;;;1043284;28;20029;-76
2024/03/11 02:53:30;;;;;;;3.97;1.70;;;;;;;;;;1038615;28;20167;-74
2024/03/11 02:54:02;;;;;;;1.80;1.65;;;;;;;;;;1043915;28;20033;-73
2024/03/11 02:54:32;;;;;;;0.75;0.70;;;;;;;;;;1044880;28;20029;-75
2024/03/11 02:55:04;;;;;;;4.05;2.60;;;;;;;;;;1039933;28;20106;-76
2024/03/11 02:55:34;;;;;;;0.98;0.98;;;;;;;;;;1042636;28;20101;-74
2024/03/11 02:56:05;;;;;;;4.28;2.45;;;;;;;;;;1042482;28;20138;-73
2024/03/11 02:56:38;;;;;;;1.08;0.55;;;;;;;;;;1043932;28;20040;-74
2024/03/11 02:57:08;;;;;;;2.45;1.13;;;;;;;;;;1036383;28;20040;-74
2024/03/11 02:57:39;;;;;;;11.90;1.30;;;;;;;;;;1033777;28;20064;-74
2024/03/11 02:58:09;;;;;;;1.23;1.13;;;;;;;;;;1031903;28;20061;-75
2024/03/11 02:58:43;;;;;;;2.50;1.65;;;;;;;;;;1035792;28;20108;-75
2024/03/11 02:59:14;;;;;;;2.63;2.40;;;;;;;;;;1040454;28;20086;-74
2024/03/11 02:59:45;;;;;;;9.95;1.42;;;;;;;;;;1041019;28;20044;-74
2024/03/11 03:00:17;;;;;;;1.70;1.55;;;;;;;;;;1043448;28;20472;-75
2024/03/11 03:00:47;;;;;;;1.25;1.15;;;;;;;;;;1042784;28;20074;-74
2024/03/11 03:01:17;;;;;;;0.68;0.68;;;;;;;;;;1044377;28;20032;-75
2024/03/11 03:01:48;;;;;;;2.75;2.50;;;;;;;;;;1044597;28;20075;-76
2024/03/11 03:02:19;;;;;;;1.05;0.95;;;;;;;;;;1045467;28;20048;-76
2024/03/11 03:02:49;;;;;;;2.85;2.65;;;;;;;;;;1043288;28;20037;-76
2024/03/11 03:03:20;;;;;;;5.25;3.08;;;;;;;;;;1041875;28;20550;-75
2024/03/11 03:03:51;;;;;;;3.88;1.55;;;;;;;;;;1041579;28;20028;-76
2024/03/11 03:04:23;;;;;;;3.15;2.90;;;;;;;;;;1043142;28;20033;-73
2024/03/11 03:04:55;;;;;;;6.07;2.22;;;;;;;;;;1044175;28;20600;-73
2024/03/11 03:05:26;;;;;;;1.67;1.48;;;;;;;;;;1042848;28;20032;-74
2024/03/11 03:05:56;;;;;;;3.20;2.90;;;;;;;;;;1045081;28;20409;-74
2024/03/11 03:06:27;;;;;;;0.63;0.63;;;;;;;;;;1042311;28;20024;-75
2024/03/11 03:06:58;;;;;;;4.32;3.08;;;;;;;;;;1042714;28;20100;-75